createdAt,value
2023-03-31T00:00:13.424Z,13.85
2023-03-31T00:05:18.236Z,14.13
2023-03-31T00:10:20.218Z,11.23
2023-03-31T00:15:22.014Z,10.20
2023-03-31T00:20:23.780Z,15.25
2023-03-31T00:25:25.801Z,16.73
2023-03-31T00:30:27.603Z,15.45
2023-03-31T00:35:29.408Z,6.45
2023-03-31T00:40:31.564Z,12.13
2023-03-31T00:45:33.369Z,19.13
2023-03-31T00:50:43.330Z,14.52
2023-03-31T00:56:11.736Z,10.90
2023-03-31T01:01:19.338Z,17.50
2023-03-31T01:06:21.209Z,7.07
2023-03-31T01:11:27.566Z,11.38
2023-03-31T01:16:29.620Z,16.33
2023-03-31T01:22:09.517Z,12.25
2023-03-31T01:27:54.212Z,10.97
2023-03-31T01:33:02.559Z,16.25
2023-03-31T01:38:34.657Z,11.63
2023-03-31T01:43:53.974Z,19.95
2023-03-31T01:49:01.684Z,11.75
2023-03-31T01:54:12.085Z,16.17
2023-03-31T01:59:29.714Z,8.48
2023-03-31T02:04:42.395Z,10.25
2023-03-31T02:09:49.756Z,5.55
2023-03-31T02:14:54.553Z,8.45
2023-03-31T02:20:00.156Z,13.55
2023-03-31T02:25:03.267Z,9.73
2023-03-31T02:30:07.151Z,9.23
2023-03-31T02:35:16.486Z,6.75
2023-03-31T02:40:21.960Z,6.35
2023-03-31T02:45:53.019Z,11.32
2023-03-31T02:51:01.848Z,4.70
2023-03-31T02:56:11.590Z,10.25
2023-03-31T03:01:27.415Z,5.97
2023-03-31T03:06:57.563Z,4.75
2023-03-31T03:12:25.588Z,5.72
2023-03-31T03:17:32.275Z,8.10
2023-03-31T03:22:34.511Z,4.40
2023-03-31T03:27:37.154Z,14.10
2023-03-31T03:32:39.328Z,8.73
2023-03-31T03:37:41.240Z,9.68
2023-03-31T03:42:43.025Z,9.13
2023-03-31T03:47:44.921Z,12.73
2023-03-31T03:52:46.903Z,8.48
2023-03-31T03:57:48.816Z,3.97
2023-03-31T04:02:54.107Z,9.25
2023-03-31T04:07:56.059Z,13.68
2023-03-31T04:12:57.953Z,11.77
2023-03-31T04:17:59.809Z,11.48
2023-03-31T04:23:02.933Z,9.88
2023-03-31T04:28:07.080Z,7.47
2023-03-31T04:33:08.881Z,5.43
2023-03-31T04:38:10.695Z,6.57
2023-03-31T04:43:12.636Z,8.75
2023-03-31T04:48:14.370Z,12.70
2023-03-31T04:53:16.175Z,8.95
2023-03-31T04:58:18.645Z,5.75
2023-03-31T05:03:21.741Z,8.63
2023-03-31T05:08:23.783Z,14.10
2023-03-31T05:13:25.617Z,9.57
2023-03-31T05:18:27.415Z,8.50
2023-03-31T05:23:30.170Z,8.70
2023-03-31T05:28:32.610Z,7.47
2023-03-31T05:33:34.869Z,11.80
2023-03-31T05:38:36.740Z,12.23
2023-03-31T05:43:39.493Z,16.60
2023-03-31T05:48:41.732Z,10.80
2023-03-31T05:53:44.277Z,13.13
2023-03-31T05:58:46.649Z,10.07
2023-03-31T06:03:49.393Z,18.52
2023-03-31T06:08:51.571Z,12.98
2023-03-31T06:13:53.332Z,9.48
2023-03-31T06:18:55.868Z,8.68
2023-03-31T06:23:58.363Z,9.57
2023-03-31T06:29:00.396Z,9.50
2023-03-31T06:34:02.147Z,12.25
2023-03-31T06:39:04.257Z,19.98
2023-03-31T06:44:06.107Z,13.23
2023-03-31T06:49:07.921Z,8.07
2023-03-31T06:54:09.915Z,18.55
2023-03-31T06:59:11.668Z,15.88
2023-03-31T07:04:13.504Z,8.43
2023-03-31T07:09:15.631Z,16.63
2023-03-31T07:14:17.389Z,16.80
2023-03-31T07:19:19.653Z,15.90
2023-03-31T07:24:21.662Z,13.15
2023-03-31T07:29:23.455Z,17.70
2023-03-31T07:34:27.423Z,15.82
2023-03-31T07:39:29.427Z,12.70
2023-03-31T07:44:33.958Z,15.52
2023-03-31T07:49:36.798Z,12.52
2023-03-31T07:54:38.700Z,14.77
2023-03-31T07:59:40.683Z,16.40
2023-03-31T08:04:42.982Z,14.90
2023-03-31T08:09:46.730Z,14.40
2023-03-31T08:14:49.064Z,15.50
2023-03-31T08:19:52.230Z,21.40
2023-03-31T08:24:54.062Z,15.30
2023-03-31T08:29:55.806Z,17.27
2023-03-31T08:34:57.925Z,14.88
2023-03-31T08:40:00.397Z,20.15
2023-03-31T08:45:24.463Z,14.00
2023-03-31T08:50:31.011Z,12.35
2023-03-31T08:55:52.026Z,18.20
2023-03-31T09:01:08.720Z,18.98
2023-03-31T09:06:17.479Z,9.02
2023-03-31T09:11:48.755Z,16.90
2023-03-31T09:17:24.205Z,13.07
2023-03-31T09:22:31.488Z,15.00
2023-03-31T09:27:37.511Z,18.50
2023-03-31T09:32:40.568Z,14.07
2023-03-31T09:37:42.566Z,17.30
2023-03-31T09:42:46.060Z,12.88
2023-03-31T09:47:52.129Z,15.63
2023-03-31T09:52:58.810Z,13.55
2023-03-31T09:58:02.177Z,18.30
2023-03-31T10:03:08.654Z,21.60
2023-03-31T10:08:24.772Z,15.63
2023-03-31T10:13:29.522Z,21.65
2023-03-31T10:18:40.424Z,17.63
2023-03-31T10:23:46.974Z,14.27
2023-03-31T10:28:52.503Z,17.30
2023-03-31T10:33:55.266Z,16.98
2023-03-31T10:38:57.852Z,13.52
2023-03-31T10:44:02.626Z,18.98
2023-03-31T10:49:15.902Z,16.80
2023-03-31T10:54:18.488Z,14.23
2023-03-31T10:59:28.522Z,16.55
2023-03-31T11:04:43.430Z,14.27
2023-03-31T11:10:12.637Z,10.65
2023-03-31T11:15:53.046Z,14.68
2023-03-31T11:21:24.587Z,15.80
2023-03-31T11:26:44.967Z,16.95
2023-03-31T11:32:22.933Z,21.23
2023-03-31T11:37:41.710Z,14.70
2023-03-31T11:42:57.550Z,14.40
2023-03-31T11:48:10.836Z,11.93
2023-03-31T11:53:30.408Z,7.25
2023-03-31T11:58:56.253Z,8.65
2023-03-31T12:04:19.296Z,15.95
2023-03-31T12:09:39.897Z,11.55
2023-03-31T12:14:57.280Z,13.52
2023-03-31T12:20:06.913Z,14.85
2023-03-31T12:25:16.610Z,20.38
2023-03-31T12:30:31.305Z,13.90
2023-03-31T12:35:54.167Z,17.80
2023-03-31T12:41:28.891Z,13.82
2023-03-31T12:46:55.551Z,15.15
2023-03-31T12:52:09.117Z,10.82
2023-03-31T12:57:11.370Z,6.75
2023-03-31T13:02:16.751Z,5.80
2023-03-31T13:07:29.380Z,5.03
2023-03-31T13:12:33.303Z,14.65
2023-03-31T13:17:38.911Z,7.50
2023-03-31T13:22:50.434Z,8.05
2023-03-31T13:27:53.975Z,5.53
2023-03-31T13:33:18.153Z,2.90
2023-03-31T13:38:41.502Z,6.35
2023-03-31T13:43:43.850Z,3.85
2023-03-31T13:48:51.821Z,3.88
2023-03-31T13:54:14.304Z,4.70
2023-03-31T13:59:41.491Z,4.88
2023-03-31T14:05:33.860Z,2.60
2023-03-31T14:10:38.296Z,11.40
2023-03-31T14:15:51.005Z,6.22
2023-03-31T14:21:17.853Z,6.65
2023-03-31T14:26:56.430Z,1.55
2023-03-31T14:32:15.019Z,4.55
2023-03-31T14:37:21.108Z,3.35
2023-03-31T14:42:51.362Z,3.45
2023-03-31T14:48:13.846Z,4.38
2023-03-31T14:53:24.713Z,1.80
2023-03-31T14:58:39.163Z,1.23
2023-03-31T15:03:42.588Z,1.83
2023-03-31T15:08:45.609Z,3.33
2023-03-31T15:14:03.747Z,1.88
2023-03-31T15:19:33.189Z,1.97
2023-03-31T15:24:34.973Z,2.50
2023-03-31T15:29:47.727Z,2.10
2023-03-31T15:34:51.744Z,0.98
2023-03-31T15:39:58.030Z,3.30
2023-03-31T15:45:46.301Z,4.45
2023-03-31T15:50:49.090Z,2.25
2023-03-31T15:55:55.918Z,3.53
2023-03-31T16:01:05.094Z,2.53
2023-03-31T16:06:19.461Z,2.35
2023-03-31T16:11:33.477Z,1.95
2023-03-31T16:16:36.181Z,5.93
2023-03-31T16:21:44.627Z,4.10
2023-03-31T16:26:47.669Z,5.53
2023-03-31T16:31:49.933Z,5.65
2023-03-31T16:36:51.816Z,6.32
2023-03-31T16:41:53.806Z,5.85
2023-03-31T16:46:56.102Z,3.55
2023-03-31T16:51:58.125Z,7.40
2023-03-31T16:57:00.238Z,6.60
2023-03-31T17:02:02.206Z,3.95
2023-03-31T17:07:04.220Z,6.30
2023-03-31T17:12:06.154Z,5.43
2023-03-31T17:17:07.950Z,6.80
2023-03-31T17:22:09.755Z,4.85
2023-03-31T17:27:11.634Z,4.80
2023-03-31T17:32:14.916Z,4.47
2023-03-31T17:37:17.522Z,7.03
2023-03-31T17:42:20.290Z,4.72
2023-03-31T17:47:22.372Z,3.90
2023-03-31T17:52:25.041Z,6.50
2023-03-31T17:57:27.518Z,5.15
2023-03-31T18:02:29.660Z,12.02
2023-03-31T18:07:31.520Z,10.75
2023-03-31T18:12:34.414Z,6.88
2023-03-31T18:17:36.570Z,10.82
2023-03-31T18:22:38.464Z,14.70
2023-03-31T18:27:40.247Z,10.05
2023-03-31T18:32:42.272Z,8.98
2023-03-31T18:37:44.225Z,15.02
2023-03-31T18:42:46.185Z,12.70
2023-03-31T18:47:48.186Z,15.18
2023-03-31T18:52:54.502Z,11.55
2023-03-31T18:57:56.832Z,12.77
2023-03-31T19:02:58.886Z,14.05
2023-03-31T19:08:01.531Z,20.77
2023-03-31T19:13:03.997Z,10.98
2023-03-31T19:18:06.141Z,13.90
2023-03-31T19:23:08.110Z,13.77
2023-03-31T19:28:14.916Z,12.80
2023-03-31T19:33:17.686Z,20.17
2023-03-31T19:38:19.590Z,11.48
2023-03-31T19:43:24.232Z,10.80
2023-03-31T19:48:28.452Z,12.20
2023-03-31T19:53:31.456Z,9.48
2023-03-31T19:58:35.913Z,15.13
2023-03-31T20:03:37.873Z,13.52
2023-03-31T20:08:42.919Z,17.35
2023-03-31T20:13:45.765Z,14.73
2023-03-31T20:19:04.319Z,12.93
2023-03-31T20:24:07.125Z,15.23
2023-03-31T20:29:10.178Z,9.50
2023-03-31T20:34:16.795Z,13.55
2023-03-31T20:39:19.978Z,14.38
2023-03-31T20:44:21.963Z,9.15
2023-03-31T20:49:23.823Z,3.88
2023-03-31T20:54:26.238Z,4.30
2023-03-31T20:59:28.291Z,6.35
2023-03-31T21:04:30.496Z,10.88
2023-03-31T21:09:33.167Z,10.80
2023-03-31T21:14:35.056Z,3.63
2023-03-31T21:19:36.826Z,9.68
2023-03-31T21:24:38.778Z,6.75
2023-03-31T21:29:40.751Z,13.32
2023-03-31T21:34:43.916Z,5.72
2023-03-31T21:39:46.564Z,7.07
2023-03-31T21:44:48.642Z,6.15
2023-03-31T21:49:50.386Z,7.43
2023-03-31T21:54:52.496Z,7.75
2023-03-31T21:59:54.315Z,4.35
2023-03-31T22:04:56.326Z,7.95
2023-03-31T22:09:58.374Z,4.95
2023-03-31T22:15:00.341Z,11.40
2023-03-31T22:20:02.302Z,12.18
2023-03-31T22:25:04.852Z,12.02
2023-03-31T22:30:07.557Z,7.22
2023-03-31T22:35:09.816Z,10.43
2023-03-31T22:40:11.813Z,15.25
2023-03-31T22:45:13.581Z,9.93
2023-03-31T22:50:15.632Z,7.47
2023-03-31T22:55:17.665Z,9.07
2023-03-31T23:00:19.755Z,6.97
2023-03-31T23:05:24.472Z,7.07
2023-03-31T23:10:26.309Z,7.00
2023-03-31T23:15:28.116Z,2.53
2023-03-31T23:20:29.892Z,9.77
2023-03-31T23:25:33.058Z,5.22
2023-03-31T23:30:34.989Z,4.05
2023-03-31T23:35:37.970Z,3.95
2023-03-31T23:40:40.343Z,5.65
2023-03-31T23:45:42.835Z,4.32
2023-03-31T23:50:45.228Z,5.72
2023-03-31T23:56:07.543Z,8.90
